Flight Track Log - Related Links

Times and Time Zones

All times are in EDT time to prevent confusion due to time zone crossing. See the ASQ4283 flight status page for this flight to view local times or setup timezone preferences in your user account.

Time Position Orientation Groundspeed Altitude Reporting Facility
EDT Latitude Longitude Course Direction KTS MPH feet Rate Location/Type
Sun 09:56:22 AM 42.0167 -87.9500 14° North 186 214 2,200  Level Chicago TRACON
Sun 09:57:22 AM 42.0667 -87.9333 14° North 235 270 4,000 1,905 Climbing Chicago TRACON
Sun 09:58:28 AM 42.1000 -87.8333 66° East 277 319 6,200 2,095 Climbing Chicago TRACON
Sun 09:59:28 AM 42.1333 -87.7333 66° East 287 330 8,400 2,000 Climbing Chicago TRACON
Sun 10:00:28 AM 42.1500 -87.6333 77° East 295 339 10,200 1,862 Climbing Chicago TRACON
Sun 10:01:53 AM 42.1839 -87.4875 73° East 304 350 12,900 1,592 Climbing Chicago Center
Sun 10:02:55 AM 42.2097 -87.3739 73° East 316 364 14,100 1,016 Climbing Chicago Center
Sun 10:03:57 AM 42.2367 -87.2517 73° East 337 388 15,000 435 Climbing Chicago Center
Sun 10:04:59 AM 42.2728 -87.0914 73° East 375 432 15,000  Level Chicago Center
Sun 10:06:01 AM 42.2842 -86.9475 84° East 385 443 15,000 339 Level Chicago Center
Sun 10:07:03 AM 42.2900 -86.8056 87° East 382 440 15,700 871 Climbing Chicago Center
Sun 10:08:05 AM 42.2950 -86.6592 87° East 386 444 16,800 968 Climbing Chicago Center
Sun 10:09:07 AM 42.3006 -86.5147 87° East 387 445 17,700 1,016 Climbing Chicago Center
Sun 10:10:09 AM 42.3064 -86.3522 87° East 382 440 18,900 1,113 Climbing Chicago Center
Sun 10:11:11 AM 42.3106 -86.2089 88° East 383 441 20,000 1,016 Climbing Chicago Center
Sun 10:12:13 AM 42.3150 -86.0653 88° East 386 444 21,000 968 Climbing Chicago Center
Sun 10:13:15 AM 42.3128 -85.9214 91° East 386 444 22,000 1,016 Climbing Chicago Center
Sun 10:14:17 AM 42.3114 -85.7753 91° East 390 449 23,100 1,113 Climbing Chicago Center
Sun 10:15:19 AM 42.3083 -85.5989 91° East 393 452 24,300 1,113 Climbing Chicago Center
Sun 10:16:21 AM 42.3067 -85.4503 91° East 397 457 25,400 1,016 Climbing Chicago Center
Sun 10:17:23 AM 42.3050 -85.3025 91° East 396 456 26,400 968 Climbing Chicago Center
Sun 10:18:25 AM 42.3022 -85.1578 91° East 392 451 27,400 1,016 Climbing Chicago Center
Sun 10:19:27 AM 42.2992 -85.0131 92° East 388 447 28,500 1,016 Climbing Chicago Center
Sun 10:20:29 AM 42.2961 -84.8689 92° East 386 444 29,500 1,113 Climbing Chicago Center
Sun 10:21:31 AM 42.2914 -84.6950 92° East 387 445 30,800 1,113 Climbing Chicago Center
Sun 10:22:33 AM 42.2878 -84.5508 92° East 386 444 31,800 968 Climbing Chicago Center
Sun 10:23:35 AM 42.2947 -84.4058 86° East 392 451 32,800 1,073 Climbing Chicago Center
Sun 10:24:36 AM 42.3164 -84.2481 79° East 386 444 34,000 1,041 Climbing Cleveland Center
Sun 10:25:36 AM 42.3375 -84.1031 79° East 386 444 34,900 500 Climbing Cleveland Center
Sun 10:26:36 AM 42.3586 -83.9525 79° East 391 450 35,000 50 Climbing Cleveland Center
Sun 10:27:36 AM 42.3819 -83.7964 79° East 407 468 35,000  Level Cleveland Center
Sun 10:28:36 AM 42.4053 -83.6258 79° East 434 499 35,000  Level Cleveland Center
Sun 10:29:36 AM 42.4450 -83.4675 71° East 462 532 35,000  Level Cleveland Center
Sun 10:30:36 AM 42.4886 -83.2919 71° East 480 552 35,000  Level Cleveland Center
Sun 10:31:36 AM 42.5342 -83.1219 70° East 480 552 35,000  Level Cleveland Center
Sun 10:32:36 AM 42.5775 -82.9544 71° East 474 545 35,000  Level Cleveland Center
Sun 10:33:36 AM 42.6225 -82.7842 70° East 474 545 35,000  Level Cleveland Center
Sun 10:34:36 AM 42.6672 -82.6161 70° East 474 545 35,000  Level Cleveland Center
Sun 10:35:36 AM 42.7097 -82.4481 71° East 474 545 35,000  Level Cleveland Center
Sun 10:36:36 AM 42.7539 -82.2825 70° East 469 540 35,000  Level Cleveland Center
Sun 10:37:36 AM 42.7961 -82.1139 71° East 469 540 35,000  Level Cleveland Center
Sun 10:38:36 AM 42.8378 -81.9450 71° East 464 534 35,000  Level Cleveland Center
Sun 10:39:36 AM 42.8856 -81.7619 70° East 464 534 35,000  Level Cleveland Center
Sun 10:40:55 AM 42.9333 -81.5167 75° East 470 541 35,000  Level Toronto Center
Sun 10:41:55 AM 42.9833 -81.3667 65° Northeast 480 552 35,000  Level Toronto Center
Sun 10:42:55 AM 43.0333 -81.2000 68° East 480 552 35,000  Level Toronto Center
Sun 10:43:55 AM 43.0833 -81.0333 68° East 480 552 35,000  Level Toronto Center
Sun 10:44:55 AM 43.1333 -80.8667 68° East 480 552 35,000  Level Toronto Center
Sun 10:45:55 AM 43.2167 -80.6833 58° Northeast 480 552 35,000  Level Toronto Center
Sun 10:46:55 AM 43.2667 -80.5333 65° Northeast 480 552 35,000  Level Toronto Center
Sun 10:47:55 AM 43.3167 -80.3667 68° East 480 552 35,000  Level Toronto Center
Sun 10:48:55 AM 43.3833 -80.2000 61° Northeast 480 552 35,000  Level Toronto Center
Sun 10:49:55 AM 43.4333 -80.0167 69° East 480 552 35,000  Level Toronto Center
Sun 10:50:55 AM 43.4833 -79.8667 65° Northeast 480 552 35,000  Level Toronto Center
Sun 10:51:55 AM 43.5500 -79.7000 61° Northeast 480 552 35,000  Level Toronto Center
Sun 10:52:55 AM 43.6000 -79.5167 69° East 500 575 35,000  Level Toronto Center
Sun 10:53:55 AM 43.6500 -79.3500 67° East 480 552 35,000  Level Toronto Center
Sun 10:54:55 AM 43.7167 -79.2000 58° Northeast 480 552 35,000  Level Toronto Center
Sun 10:55:55 AM 43.7667 -79.0167 69° East 490 564 35,000  Level Toronto Center
Sun 10:56:55 AM 43.8167 -78.8500 67° East 490 564 35,000  Level Toronto Center
Sun 10:57:55 AM 43.8833 -78.6667 63° Northeast 490 564 35,000  Level Toronto Center
Sun 10:58:55 AM 43.9333 -78.5000 67° East 490 564 35,000  Level Toronto Center
Sun 10:59:55 AM 43.9667 -78.3333 74° East 490 564 35,000  Level Toronto Center
Sun 11:00:55 AM 44.0333 -78.1500 63° Northeast 490 564 35,000  Level Toronto Center
Sun 11:01:55 AM 44.0833 -77.9833 67° East 490 564 35,000  Level Toronto Center
Sun 11:02:55 AM 44.1500 -77.8000 63° Northeast 490 564 35,000  Level Toronto Center
Sun 11:03:55 AM 44.2000 -77.6333 67° East 490 564 35,000  Level Toronto Center
Sun 11:04:55 AM 44.2667 -77.4500 63° Northeast 490 564 35,000  Level Toronto Center
Sun 11:05:55 AM 44.3000 -77.2833 74° East 490 564 35,000  Level Toronto Center
Sun 11:06:55 AM 44.3500 -77.0833 71° East 490 564 35,000  Level Toronto Center
Sun 11:07:55 AM 44.4000 -76.9333 65° Northeast 490 564 35,000  Level Toronto Center
Sun 11:08:55 AM 44.4667 -76.7333 65° Northeast 490 564 35,000  Level Toronto Center
Sun 11:09:55 AM 44.5000 -76.5667 74° East 490 564 35,000  Level Toronto Center
Sun 11:10:55 AM 44.5667 -76.3833 63° Northeast 490 564 35,000  Level Toronto Center
Sun 11:11:55 AM 44.6167 -76.2167 67° East 490 564 35,000 -300 Level Toronto Center
Sun 11:12:55 AM 44.6667 -76.0167 71° East 490 564 34,400 -950 Descending Toronto Center
Sun 11:13:55 AM 44.7167 -75.8500 67° East 490 564 33,100 -1,550 Descending Toronto Center
Sun 11:14:55 AM 44.7667 -75.6667 69° East 480 552 31,300 -1,700 Descending Toronto Center
Sun 11:15:55 AM 44.8000 -75.5000 74° East 490 564 29,700 -1,650 Descending Toronto Center
Sun 11:16:55 AM 44.8500 -75.3333 67° East 500 575 28,000 -1,750 Descending Toronto Center
Sun 11:17:55 AM 44.9167 -75.1333 65° Northeast 480 552 26,200 -1,800 Descending Toronto Center
Sun 11:18:55 AM 44.9500 -74.9667 74° East 480 552 24,400 -1,950 Descending Toronto Center
Sun 11:19:55 AM 45.0167 -74.8000 60° Northeast 470 541 22,300 -2,150 Descending Toronto Center
Sun 11:20:55 AM 45.0667 -74.6500 65° Northeast 460 529 20,100 -2,250 Descending Toronto Center
Sun 11:21:55 AM 45.1333 -74.5000 58° Northeast 420 483 17,800 -2,300 Descending Toronto Center
Sun 11:22:55 AM 45.2000 -74.3833 51° Northeast 420 483 15,500 -2,400 Descending Toronto Center
Sun 11:23:55 AM 45.2500 -74.2333 65° Northeast 420 483 13,000 -2,350 Descending Toronto Center
Sun 11:24:55 AM 45.3167 -74.1000 55° Northeast 390 449 10,800 -1,455 Descending Toronto Center
Sun 11:26:07 AM 45.3667 -74.0167 49° Northeast 300 345 9,800 -1,182 Descending Montreal Center
Sun 11:27:07 AM 45.4333 -73.9333 41° Northeast 290 334 8,200 -1,550 Descending Montreal Center
Sun 11:28:07 AM 45.5000 -73.8667 35° Northeast 280 322 6,700 -1,650 Descending Montreal Center
Sun 11:29:07 AM 45.5500 -73.7833 49° Northeast 270 311 4,900 -1,750 Descending Montreal Center
Sun 11:30:07 AM 45.6000 -73.7167 43° Northeast 270 311 3,200 -950 Descending Montreal Center
Sun 11:31:07 AM 45.6500 -73.6167 54° Northeast 250 288 3,000 -200 Descending Montreal Center

Login

Don't have an account? Register now (free) for customized features, flight alerts, and more!